Time;durP1;ratioP1;P1;durP2;ratioP2;P2;SDS_P1;SDS_P2;PMS_P1;PMS_P2;Temp;Humidity;BMP_temperature;BMP_pressure;BME280_temperature;BME280_humidity;BME280_pressure;Samples;Min_cycle;Max_cycle;Signal;HPM_P1;HPM_P2
2022/10/15 00:01:59;;;;;;;7.13;2.00;;;19.20;99.90;;;;;;4938063;29;20094;-67
2022/10/15 00:04:25;;;;;;;7.40;2.20;;;19.20;99.90;;;;;;4955011;29;20078;-69
2022/10/15 00:06:51;;;;;;;7.00;2.33;;;19.20;99.90;;;;;;4937648;29;20050;-68
2022/10/15 00:09:17;;;;;;;7.82;2.47;;;19.20;99.90;;;;;;4954825;29;20488;-68
2022/10/15 00:11:43;;;;;;;9.00;2.10;;;19.20;99.90;;;;;;4937450;29;20437;-68
2022/10/15 00:14:09;;;;;;;7.95;1.85;;;19.20;99.90;;;;;;4954904;29;20031;-69
2022/10/15 00:16:35;;;;;;;5.32;1.85;;;19.20;99.90;;;;;;4937557;29;20031;-69
2022/10/15 00:19:02;;;;;;;7.82;2.05;;;19.10;99.90;;;;;;4954641;29;20047;-68
2022/10/15 00:21:28;;;;;;;3.17;1.67;;;19.20;99.90;;;;;;4955053;29;20103;-68
2022/10/15 00:23:55;;;;;;;5.28;1.80;;;19.10;99.90;;;;;;4954984;29;20035;-68
2022/10/15 00:26:24;;;;;;;8.32;2.15;;;19.20;99.90;;;;;;4937185;29;20039;-69
2022/10/15 00:28:53;;;;;;;5.47;1.60;;;19.20;99.90;;;;;;4954639;29;20031;-69
2022/10/15 00:31:21;;;;;;;5.85;1.85;;;19.20;99.90;;;;;;4954854;29;20071;-68
2022/10/15 00:33:50;;;;;;;8.15;2.55;;;19.20;99.90;;;;;;4954735;29;20107;-69
2022/10/15 00:36:19;;;;;;;8.18;2.38;;;19.20;99.90;;;;;;4954922;29;20098;-67
2022/10/15 00:38:46;;;;;;;6.70;2.38;;;19.30;99.90;;;;;;4954532;29;20031;-69
2022/10/15 00:41:13;;;;;;;;;;;19.30;99.90;;;;;;4955072;29;20035;-69
2022/10/15 00:43:54;;;;;;;5.88;2.20;;;19.20;99.90;;;;;;4954607;29;19980;-69
2022/10/15 00:46:30;;;;;;;6.80;2.70;;;19.20;99.90;;;;;;4954763;29;20179;-70
2022/10/15 00:49:08;;;;;;;7.50;2.50;;;19.20;99.90;;;;;;4954849;29;20023;-67
2022/10/15 00:51:41;;;;;;;6.03;1.90;;;19.20;99.90;;;;;;4954610;29;20035;-68
2022/10/15 00:54:08;;;;;;;6.45;2.08;;;19.20;99.90;;;;;;4954280;29;20325;-67
2022/10/15 00:56:36;;;;;;;4.57;1.75;;;19.30;99.90;;;;;;4954062;29;20035;-67
2022/10/15 00:59:05;;;;;;;3.95;1.65;;;19.20;99.90;;;;;;4954156;29;20519;-68
2022/10/15 01:01:32;;;;;;;6.55;1.70;;;19.30;99.90;;;;;;4954102;28;20172;-68
2022/10/15 01:04:00;;;;;;;4.82;1.90;;;19.30;99.90;;;;;;4954062;29;20027;-68
2022/10/15 01:06:28;;;;;;;3.92;1.60;;;19.20;99.90;;;;;;4936531;29;20046;-68
2022/10/15 01:08:54;;;;;;;6.20;1.70;;;19.20;99.90;;;;;;4954160;29;20031;-69
2022/10/15 01:11:28;;;;;;;7.90;1.92;;;19.20;99.90;;;;;;4953652;29;20055;-68
2022/10/15 01:14:31;;;;;;;4.95;1.85;;;19.20;99.90;;;;;;4936390;29;20035;-68
2022/10/15 01:17:17;;;;;;;8.57;1.77;;;19.20;99.90;;;;;;4935900;29;20480;-69
2022/10/15 01:19:46;;;;;;;4.57;1.70;;;19.10;99.90;;;;;;4934674;29;20051;-69
2022/10/15 01:22:31;;;;;;;3.85;1.50;;;19.20;99.90;;;;;;4934707;29;20019;-68
2022/10/15 01:25:48;;;;;;;7.28;1.92;;;19.20;99.90;;;;;;4932834;29;20108;-68
2022/10/15 01:28:28;;;;;;;5.05;1.85;;;19.20;99.90;;;;;;4934627;29;20121;-69
2022/10/15 01:31:09;;;;;;;4.55;1.60;;;19.20;99.90;;;;;;4934650;29;20016;-69
2022/10/15 01:34:02;;;;;;;8.65;1.80;;;19.20;99.90;;;;;;4934700;29;20023;-69
2022/10/15 01:36:45;;;;;;;4.63;1.40;;;19.30;99.90;;;;;;4934796;29;20024;-69
2022/10/15 01:39:33;;;;;;;7.90;2.28;;;19.30;99.90;;;;;;4934473;29;20147;-69
2022/10/15 01:42:34;;;;;;;7.50;1.58;;;19.30;99.90;;;;;;4934471;29;20032;-69
2022/10/15 01:45:19;;;;;;;6.10;1.80;;;19.20;99.90;;;;;;4933947;29;20035;-69
2022/10/15 01:47:55;;;;;;;4.63;1.70;;;19.10;99.90;;;;;;4934495;29;20028;-70
2022/10/15 01:50:26;;;;;;;3.97;1.45;;;19.00;99.90;;;;;;4934373;29;20417;-69
2022/10/15 01:52:54;;;;;;;5.95;1.83;;;19.00;99.90;;;;;;4934015;29;20122;-69
2022/10/15 01:55:24;;;;;;;5.32;1.73;;;19.00;99.90;;;;;;4934136;29;20483;-69
2022/10/15 01:57:51;;;;;;;4.70;1.70;;;19.00;99.90;;;;;;4932499;29;20407;-68
2022/10/15 02:00:17;;;;;;;4.65;1.67;;;18.90;99.90;;;;;;4932705;29;20114;-69
2022/10/15 02:02:43;;;;;;;7.50;1.60;;;19.00;99.90;;;;;;4934249;29;20035;-68
2022/10/15 02:05:24;;;;;;;6.88;1.80;;;18.90;99.90;;;;;;4933839;29;20039;-69
2022/10/15 02:08:09;;;;;;;5.45;1.83;;;19.00;99.90;;;;;;4933854;29;20027;-68
2022/10/15 02:10:45;;;;;;;4.63;1.60;;;18.90;99.90;;;;;;4933850;29;20040;-69
2022/10/15 02:13:43;;;;;;;4.68;1.58;;;18.90;99.90;;;;;;4933338;29;20098;-68
2022/10/15 02:16:16;;;;;;;5.93;1.75;;;18.90;99.90;;;;;;4933773;29;20034;-69
2022/10/15 02:18:58;;;;;;;5.90;2.00;;;18.80;99.90;;;;;;4944887;29;20051;-68
2022/10/15 02:21:46;;;;;;;6.10;2.10;;;18.70;99.90;;;;;;4952528;29;20031;-69
2022/10/15 02:24:23;;;;;;;8.02;2.35;;;18.80;99.90;;;;;;4952685;29;20110;-68
2022/10/15 02:26:52;;;;;;;5.05;2.05;;;18.70;99.90;;;;;;4952655;29;20085;-68
2022/10/15 02:29:22;;;;;;;5.05;1.85;;;18.70;99.90;;;;;;4935058;29;20065;-68
2022/10/15 02:31:50;;;;;;;7.38;2.22;;;18.70;99.90;;;;;;4952643;29;20023;-69
2022/10/15 02:34:21;;;;;;;6.18;2.08;;;18.70;99.90;;;;;;4952894;29;20031;-69
2022/10/15 02:36:48;;;;;;;6.82;2.45;;;18.70;99.90;;;;;;4935940;29;20099;-69
2022/10/15 02:39:23;;;;;;;10.45;2.42;;;18.70;99.90;;;;;;4952734;29;20424;-68
2022/10/15 02:41:50;;;;;;;5.13;2.10;;;18.70;99.90;;;;;;4952653;29;20019;-69
2022/10/15 02:44:16;;;;;;;6.53;2.03;;;18.70;99.90;;;;;;4952387;29;20397;-68
2022/10/15 02:46:44;;;;;;;6.50;1.90;;;18.80;99.90;;;;;;4935183;29;20086;-69
2022/10/15 02:49:11;;;;;;;6.38;2.03;;;18.70;99.90;;;;;;4952935;29;20065;-69
2022/10/15 02:51:37;;;;;;;7.72;2.30;;;18.80;99.90;;;;;;4935283;29;20058;-69
2022/10/15 02:54:06;;;;;;;4.90;1.67;;;18.80;99.90;;;;;;4952480;29;20023;-69
2022/10/15 02:56:33;;;;;;;6.18;2.00;;;18.80;99.90;;;;;;4952233;29;20038;-69
2022/10/15 02:59:00;;;;;;;6.25;1.90;;;18.80;99.90;;;;;;4952623;29;20030;-69
2022/10/15 03:01:27;;;;;;;5.65;2.00;;;18.80;99.90;;;;;;4952341;29;20031;-69
2022/10/15 03:03:53;;;;;;;7.10;2.10;;;18.80;99.90;;;;;;4952163;29;20036;-69
2022/10/15 03:06:19;;;;;;;7.10;2.55;;;18.70;99.90;;;;;;4952821;29;20034;-69
2022/10/15 03:08:45;;;;;;;5.17;2.13;;;18.70;99.90;;;;;;4952522;29;20071;-68
2022/10/15 03:11:11;;;;;;;7.25;2.67;;;18.70;99.90;;;;;;4952719;29;20334;-69
2022/10/15 03:13:40;;;;;;;5.78;2.42;;;18.70;99.90;;;;;;4952116;29;20058;-69
2022/10/15 03:16:07;;;;;;;6.53;2.08;;;18.70;99.90;;;;;;4935453;29;20512;-69
2022/10/15 03:18:35;;;;;;;11.32;2.78;;;18.70;99.90;;;;;;4952080;29;20119;-69
2022/10/15 03:21:04;;;;;;;6.07;2.08;;;18.80;99.90;;;;;;4952293;29;20046;-68
2022/10/15 03:23:30;;;;;;;5.82;2.08;;;18.80;99.90;;;;;;4953704;28;20038;-69
2022/10/15 03:25:56;;;;;;;8.48;1.98;;;18.80;99.90;;;;;;4939579;29;20023;-68
2022/10/15 03:28:23;;;;;;;6.05;2.22;;;18.80;99.90;;;;;;4957172;29;20074;-69
2022/10/15 03:30:49;;;;;;;8.43;2.30;;;18.80;99.90;;;;;;4956738;29;20031;-69
2022/10/15 03:33:16;;;;;;;9.13;2.42;;;18.80;99.90;;;;;;4957288;29;20031;-68
2022/10/15 03:35:42;;;;;;;7.68;2.35;;;18.70;99.90;;;;;;4956794;28;20114;-69
2022/10/15 03:38:08;;;;;;;4.90;2.40;;;18.60;99.90;;;;;;4955380;29;20329;-68
2022/10/15 03:40:34;;;;;;;7.93;2.30;;;18.60;99.90;;;;;;4956000;29;20038;-68
2022/10/15 03:43:00;;;;;;;4.25;2.00;;;18.60;99.90;;;;;;4957106;29;20121;-70
2022/10/15 03:45:26;;;;;;;6.65;2.20;;;18.60;99.90;;;;;;4956552;29;20122;-70
2022/10/15 03:47:53;;;;;;;10.23;2.28;;;18.60;99.90;;;;;;4958118;29;20109;-70
2022/10/15 03:50:19;;;;;;;5.80;2.20;;;18.70;99.90;;;;;;4956825;29;20440;-70
2022/10/15 03:52:45;;;;;;;3.88;2.20;;;18.70;99.90;;;;;;4956650;28;20059;-70
2022/10/15 03:55:12;;;;;;;10.63;2.47;;;18.80;99.90;;;;;;4956494;28;20055;-67
2022/10/15 03:57:38;;;;;;;5.72;2.08;;;18.70;99.90;;;;;;4956936;28;20054;-69
2022/10/15 04:00:08;;;;;;;12.25;2.60;;;18.70;99.90;;;;;;4956676;28;20030;-68
2022/10/15 04:02:34;;;;;;;6.78;2.38;;;18.70;99.90;;;;;;4955657;29;20034;-68
2022/10/15 04:05:00;;;;;;;8.50;2.30;;;18.70;99.90;;;;;;4956550;28;20035;-68
2022/10/15 04:07:26;;;;;;;5.15;2.17;;;18.70;99.90;;;;;;4956223;29;20030;-68
2022/10/15 04:09:52;;;;;;;3.70;2.00;;;18.70;99.90;;;;;;4956264;29;20023;-68
2022/10/15 04:12:18;;;;;;;6.53;2.30;;;18.60;99.90;;;;;;4956786;29;20055;-68
2022/10/15 04:14:44;;;;;;;8.63;2.20;;;18.70;99.90;;;;;;4956225;28;20035;-67
2022/10/15 04:17:11;;;;;;;5.32;2.15;;;18.70;99.90;;;;;;4956420;29;20068;-68
2022/10/15 04:19:38;;;;;;;11.88;2.30;;;18.70;99.90;;;;;;4973682;28;20487;-68
2022/10/15 04:22:04;;;;;;;5.38;2.28;;;18.80;99.90;;;;;;4976323;28;20019;-68
2022/10/15 04:24:32;;;;;;;5.22;2.10;;;18.80;99.90;;;;;;4957733;28;20050;-67
2022/10/15 04:26:58;;;;;;;5.80;2.35;;;18.80;99.90;;;;;;4955628;29;20034;-69
2022/10/15 04:29:24;;;;;;;5.80;2.05;;;18.80;99.90;;;;;;4954937;29;20396;-67
2022/10/15 04:31:50;;;;;;;6.43;2.63;;;18.70;99.90;;;;;;4937866;29;20039;-69
2022/10/15 04:34:16;;;;;;;5.57;2.20;;;18.70;99.90;;;;;;4937993;29;20063;-68
2022/10/15 04:36:42;;;;;;;4.45;2.05;;;18.60;99.90;;;;;;4955480;29;20278;-72
2022/10/15 04:39:08;;;;;;;7.95;2.03;;;18.60;99.90;;;;;;4956695;29;20028;-69
2022/10/15 04:41:36;;;;;;;8.15;2.25;;;18.70;99.90;;;;;;4956858;28;20531;-67
2022/10/15 04:44:03;;;;;;;7.00;2.10;;;18.70;99.90;;;;;;4964288;28;20054;-69
2022/10/15 04:46:29;;;;;;;5.32;2.42;;;18.70;99.90;;;;;;4965262;28;20023;-69
2022/10/15 04:48:57;;;;;;;5.00;2.05;;;18.70;99.90;;;;;;4962638;28;20122;-69
2022/10/15 04:51:26;;;;;;;4.72;1.90;;;18.60;99.90;;;;;;4939886;29;20310;-69
2022/10/15 04:53:54;;;;;;;6.30;2.42;;;18.60;99.90;;;;;;4955957;29;20024;-69
2022/10/15 04:56:21;;;;;;;5.35;2.00;;;18.60;99.90;;;;;;4938759;29;20035;-68
2022/10/15 04:58:48;;;;;;;5.00;2.10;;;18.60;99.90;;;;;;4938600;29;20496;-67
2022/10/15 05:01:17;;;;;;;9.00;2.72;;;18.70;99.90;;;;;;4956038;28;20427;-68
2022/10/15 05:03:45;;;;;;;7.65;1.90;;;18.60;99.90;;;;;;4938216;29;20027;-69
2022/10/15 05:06:17;;;;;;;5.43;2.25;;;18.60;99.90;;;;;;4955536;28;20166;-68
2022/10/15 05:08:43;;;;;;;5.57;2.38;;;18.60;99.90;;;;;;4956158;29;20028;-69
2022/10/15 05:11:16;;;;;;;5.90;2.53;;;18.50;99.90;;;;;;4955731;29;20110;-68
2022/10/15 05:13:42;;;;;;;11.38;2.78;;;18.60;99.90;;;;;;4957440;28;20466;-65
2022/10/15 05:16:17;;;;;;;8.25;2.45;;;18.50;99.90;;;;;;4959328;28;20023;-69
2022/10/15 05:18:46;;;;;;;11.45;2.45;;;18.50;99.90;;;;;;4955840;28;20050;-70
2022/10/15 05:21:13;;;;;;;10.77;2.22;;;18.50;99.90;;;;;;4955924;29;20023;-69
2022/10/15 05:23:39;;;;;;;;;;;18.50;99.90;;;;;;4938617;29;20396;-69
2022/10/15 05:26:13;;;;;;;8.50;2.45;;;18.40;99.90;;;;;;4954616;29;19930;-69
2022/10/15 05:28:39;;;;;;;6.03;2.55;;;18.50;99.90;;;;;;4954759;29;20150;-69
2022/10/15 05:31:10;;;;;;;9.25;2.70;;;18.50;99.90;;;;;;4955131;29;20329;-69
2022/10/15 05:33:38;;;;;;;5.38;1.90;;;18.50;99.90;;;;;;4954700;29;20110;-68
2022/10/15 05:36:27;;;;;;;8.43;2.28;;;18.60;99.90;;;;;;4952678;28;20030;-67
2022/10/15 05:38:55;;;;;;;6.85;2.20;;;18.60;99.90;;;;;;4974338;28;20034;-69
2022/10/15 05:41:23;;;;;;;4.82;1.50;;;18.60;99.90;;;;;;4956726;28;20029;-69
2022/10/15 05:43:50;;;;;;;6.47;2.03;;;18.60;99.90;;;;;;4973896;28;20498;-67
2022/10/15 05:46:17;;;;;;;8.27;2.00;;;18.80;99.90;;;;;;4973961;28;20114;-69
2022/10/15 05:48:46;;;;;;;;;;;18.80;99.90;;;;;;4974066;28;20058;-68
2022/10/15 05:51:12;;;;;;;7.97;1.90;;;18.70;99.90;;;;;;4955576;28;20326;-68
2022/10/15 05:53:39;;;;;;;3.70;1.52;;;18.60;99.90;;;;;;4955718;28;20018;-67
2022/10/15 05:56:07;;;;;;;7.10;2.05;;;18.60;99.90;;;;;;4972581;28;20483;-69
2022/10/15 05:58:34;;;;;;;8.35;1.90;;;18.60;99.90;;;;;;4955432;28;20023;-68
2022/10/15 06:01:02;;;;;;;7.15;1.77;;;18.70;99.90;;;;;;4955148;28;20177;-68
2022/10/15 06:03:28;;;;;;;5.18;1.70;;;18.80;99.90;;;;;;4955187;28;20054;-69
2022/10/15 06:05:54;;;;;;;4.95;1.85;;;18.90;99.90;;;;;;4973164;28;20396;-67
2022/10/15 06:08:21;;;;;;;4.07;1.58;;;19.00;99.90;;;;;;4973159;28;20031;-67
2022/10/15 06:10:48;;;;;;;;;;;19.00;99.90;;;;;;4973673;28;20031;-68
2022/10/15 06:13:14;;;;;;;6.75;1.77;;;19.20;99.90;;;;;;4973108;28;19906;-69
2022/10/15 06:15:45;;;;;;;5.78;1.60;;;19.20;99.90;;;;;;4973110;28;20041;-69
2022/10/15 06:18:14;;;;;;;5.53;2.00;;;19.20;99.90;;;;;;4972847;28;20551;-66
2022/10/15 06:20:49;;;;;;;4.38;1.60;;;19.40;99.90;;;;;;4973479;28;20026;-67
2022/10/15 06:23:15;;;;;;;5.55;1.40;;;20.10;99.90;;;;;;4973241;28;20101;-68
2022/10/15 06:25:41;;;;;;;4.45;1.50;;;21.50;99.90;;;;;;4973596;28;20483;-69
2022/10/15 06:28:08;;;;;;;6.38;1.40;;;22.90;99.90;;;;;;4973527;28;20511;-69
2022/10/15 06:30:34;;;;;;;4.47;1.42;;;24.20;99.90;;;;;;4955840;28;20034;-68
2022/10/15 06:33:01;;;;;;;;;;;24.80;99.90;;;;;;4973973;28;20065;-68
2022/10/15 06:35:33;;;;;;;6.90;1.40;;;24.70;99.90;;;;;;4956528;28;20000;-68
2022/10/15 06:38:03;;;;;;;4.07;1.45;;;24.70;99.90;;;;;;4973748;28;20534;-68
2022/10/15 06:40:30;;;;;;;5.85;1.70;;;24.10;99.90;;;;;;4955674;28;20352;-69
2022/10/15 06:43:09;;;;;;;7.93;1.48;;;23.80;99.90;;;;;;4955564;28;20081;-69
2022/10/15 06:45:43;;;;;;;4.03;1.33;;;24.40;99.90;;;;;;4973493;28;20043;-69
2022/10/15 06:48:10;;;;;;;9.23;1.58;;;25.30;99.90;;;;;;4972938;28;20052;-69
2022/10/15 06:50:36;;;;;;;;;;;26.20;99.90;;;;;;4956067;28;20035;-68
2022/10/15 06:53:03;;;;;;;7.03;2.90;;;26.70;99.90;;;;;;4973306;28;19906;-69
2022/10/15 06:55:33;;;;;;;5.95;1.40;;;27.60;99.90;;;;;;4973224;28;20460;-69
2022/10/15 06:57:59;;;;;;;6.65;1.27;;;27.90;99.90;;;;;;4972962;28;20027;-68
2022/10/15 07:00:26;;;;;;;5.88;1.38;;;28.10;99.90;;;;;;4976918;28;20377;-68
2022/10/15 07:02:53;;;;;;;4.18;1.60;;;28.70;99.90;;;;;;4976621;28;20055;-69
2022/10/15 07:05:19;;;;;;;3.90;1.25;;;29.00;99.90;;;;;;4977082;28;20034;-68
2022/10/15 07:07:54;;;;;;;7.03;1.48;;;29.00;99.90;;;;;;4976807;28;20019;-69
2022/10/15 07:10:21;;;;;;;5.88;1.42;;;28.40;99.90;;;;;;4975426;28;20027;-70
2022/10/15 07:12:49;;;;;;;7.78;1.80;;;28.30;99.90;;;;;;4975870;28;20042;-69
2022/10/15 07:15:15;;;;;;;6.03;1.33;;;28.20;99.90;;;;;;4976333;28;20035;-69
2022/10/15 07:17:55;;;;;;;6.38;1.40;;;28.10;99.90;;;;;;4976354;28;20105;-68
2022/10/15 07:20:22;;;;;;;3.92;1.25;;;27.40;99.90;;;;;;4977089;28;20027;-69
2022/10/15 07:22:48;;;;;;;6.13;1.77;;;27.00;99.90;;;;;;4976883;28;20033;-69
2022/10/15 07:25:14;;;;;;;7.00;1.60;;;26.70;99.90;;;;;;4976696;28;20031;-66
2022/10/15 07:27:40;;;;;;;4.18;1.60;;;26.40;99.90;;;;;;4976186;28;20027;-68
2022/10/15 07:30:08;;;;;;;7.25;1.45;;;26.10;99.90;;;;;;4976104;28;20395;-67
2022/10/15 07:32:34;;;;;;;3.33;1.40;;;25.60;99.90;;;;;;4958527;28;20049;-68
2022/10/15 07:35:01;;;;;;;6.03;1.42;;;25.10;99.90;;;;;;4975966;28;20511;-68
2022/10/15 07:37:27;;;;;;;3.20;1.33;;;24.70;99.90;;;;;;4958493;28;20027;-68
2022/10/15 07:39:53;;;;;;;6.22;1.50;;;24.10;99.90;;;;;;4976234;28;20385;-67
2022/10/15 07:42:21;;;;;;;7.65;1.30;;;23.90;99.90;;;;;;4975673;28;20035;-69
2022/10/15 07:44:48;;;;;;;6.57;1.52;;;23.60;99.90;;;;;;4975630;28;20046;-67
2022/10/15 07:47:14;;;;;;;3.60;1.50;;;23.50;99.90;;;;;;4958376;28;20019;-68
2022/10/15 07:49:41;;;;;;;4.53;1.58;;;23.30;99.90;;;;;;4957473;28;20113;-70
2022/10/15 07:52:07;;;;;;;5.70;1.40;;;23.50;99.90;;;;;;4975408;28;20027;-69
2022/10/15 07:54:35;;;;;;;5.53;1.60;;;23.90;99.90;;;;;;4957243;28;20031;-68
2022/10/15 07:57:01;;;;;;;5.72;1.65;;;24.40;99.90;;;;;;4957723;28;20022;-69
2022/10/15 07:59:27;;;;;;;4.88;1.60;;;24.80;99.90;;;;;;4942097;28;20350;-68
2022/10/15 08:01:53;;;;;;;3.92;1.52;;;25.00;99.90;;;;;;4975131;28;20468;-68
2022/10/15 08:04:21;;;;;;;5.25;1.60;;;25.30;99.90;;;;;;4975431;28;20039;-68
2022/10/15 08:06:48;;;;;;;5.00;1.80;;;25.40;99.90;;;;;;4975054;28;20054;-68
2022/10/15 08:09:15;;;;;;;4.15;1.33;;;25.30;99.90;;;;;;4974770;28;20108;-67
2022/10/15 08:11:41;;;;;;;6.18;1.75;;;25.00;99.90;;;;;;4974672;28;20027;-67
2022/10/15 08:14:09;;;;;;;4.95;1.67;;;25.20;99.90;;;;;;4975197;28;20034;-67
2022/10/15 08:16:35;;;;;;;5.25;1.40;;;25.40;99.90;;;;;;4975092;28;20048;-69
2022/10/15 08:19:01;;;;;;;7.03;1.50;;;25.70;99.90;;;;;;4975198;28;20046;-68
2022/10/15 08:21:27;;;;;;;4.00;1.42;;;25.70;99.90;;;;;;4975373;28;20027;-69
2022/10/15 08:23:53;;;;;;;4.45;1.35;;;25.80;99.90;;;;;;4958101;28;20038;-70
2022/10/15 08:26:21;;;;;;;6.05;1.15;;;26.00;99.90;;;;;;4975725;28;20500;-69
2022/10/15 08:28:47;;;;;;;6.30;1.42;;;26.10;99.90;;;;;;4975450;28;20027;-70
2022/10/15 08:31:13;;;;;;;;;;;26.40;99.90;;;;;;4976191;28;20050;-69
2022/10/15 08:33:39;;;;;;;;;;;26.60;99.90;;;;;;4975576;28;20378;-70
2022/10/15 08:36:06;;;;;;;5.20;1.20;;;26.70;99.90;;;;;;4975251;28;19968;-69
2022/10/15 08:38:33;;;;;;;6.07;1.15;;;26.90;99.90;;;;;;4958365;28;20047;-69
2022/10/15 08:41:01;;;;;;;4.75;2.28;;;27.00;99.90;;;;;;4975170;28;20030;-69
2022/10/15 08:43:36;;;;;;;5.00;1.40;;;27.10;99.90;;;;;;4957472;28;20030;-69
2022/10/15 08:46:08;;;;;;;4.30;1.37;;;26.80;99.90;;;;;;4975325;28;20031;-68
2022/10/15 08:48:39;;;;;;;6.28;2.33;;;26.30;99.90;;;;;;4975451;28;20246;-67
2022/10/15 08:51:12;;;;;;;7.70;1.90;;;26.20;99.90;;;;;;4956830;28;20027;-68
2022/10/15 08:53:56;;;;;;;6.35;2.13;;;26.00;99.90;;;;;;4974418;28;20443;-68
2022/10/15 08:56:42;;;;;;;6.32;1.85;;;26.10;99.90;;;;;;4974595;28;20467;-69
2022/10/15 08:59:34;;;;;;;9.05;2.10;;;26.00;99.90;;;;;;4974696;28;20031;-68
2022/10/15 09:02:18;;;;;;;10.10;2.55;;;26.00;99.90;;;;;;4974306;28;20133;-69
2022/10/15 09:05:22;;;;;;;4.75;1.75;;;25.90;99.90;;;;;;4974093;28;20047;-69
2022/10/15 09:08:00;;;;;;;7.90;1.70;;;26.10;99.90;;;;;;4970393;28;20057;-67
2022/10/15 09:10:48;;;;;;;4.15;1.10;;;26.20;99.90;;;;;;4974462;28;20292;-70
2022/10/15 09:13:34;;;;;;;3.40;1.30;;;26.40;99.90;;;;;;4973687;28;20014;-69
2022/10/15 09:16:21;;;;;;;6.35;1.65;;;26.50;99.90;;;;;;4974294;28;20029;-68
2022/10/15 09:18:51;;;;;;;5.60;2.17;;;26.70;99.90;;;;;;4973844;28;20096;-70
2022/10/15 09:21:18;;;;;;;3.83;1.02;;;26.90;99.90;;;;;;4956165;28;20165;-69
2022/10/15 09:23:45;;;;;;;4.60;1.10;;;26.70;99.90;;;;;;4973301;28;20420;-69
2022/10/15 09:26:11;;;;;;;5.05;1.30;;;26.50;99.90;;;;;;4973909;28;20371;-67
2022/10/15 09:28:52;;;;;;;8.07;1.70;;;26.60;99.90;;;;;;4973763;28;20460;-68
2022/10/15 09:31:22;;;;;;;8.55;1.83;;;26.60;99.90;;;;;;4973901;28;20513;-69
2022/10/15 09:33:55;;;;;;;6.10;1.98;;;26.60;99.90;;;;;;4956448;28;20380;-69
2022/10/15 09:36:36;;;;;;;8.95;1.92;;;26.50;99.90;;;;;;4973708;28;20367;-69
2022/10/15 09:39:35;;;;;;;7.63;1.77;;;26.50;99.90;;;;;;4940213;28;20137;-68
2022/10/15 09:42:18;;;;;;;4.45;1.50;;;26.60;99.90;;;;;;4973398;28;20038;-69
2022/10/15 09:44:46;;;;;;;5.32;1.50;;;26.40;99.90;;;;;;4973320;28;20369;-69
2022/10/15 09:47:27;;;;;;;10.95;1.73;;;26.30;99.90;;;;;;4973132;28;20085;-69
2022/10/15 09:49:53;;;;;;;6.30;1.45;;;26.20;99.90;;;;;;4973309;28;20031;-69
2022/10/15 09:52:39;;;;;;;6.05;1.67;;;26.20;99.90;;;;;;4973365;28;20461;-67
2022/10/15 09:55:37;;;;;;;6.88;1.67;;;26.20;99.90;;;;;;4973614;28;20031;-69
2022/10/15 09:58:15;;;;;;;5.43;1.67;;;26.10;99.90;;;;;;4973383;28;20102;-69
2022/10/15 10:01:01;;;;;;;9.20;1.60;;;26.00;99.90;;;;;;4973551;28;20058;-72
2022/10/15 10:03:33;;;;;;;5.72;1.55;;;26.10;99.90;;;;;;4955455;28;20027;-70
2022/10/15 10:06:02;;;;;;;15.57;2.63;;;26.20;99.90;;;;;;4972082;28;20460;-69
2022/10/15 10:08:35;;;;;;;7.85;2.00;;;26.40;99.90;;;;;;4973137;28;20050;-70
2022/10/15 10:11:03;;;;;;;9.32;2.03;;;26.70;99.90;;;;;;4972944;28;20031;-69
2022/10/15 10:13:37;;;;;;;3.58;1.40;;;27.00;99.90;;;;;;4972559;28;20468;-69
2022/10/15 10:16:09;;;;;;;5.13;1.92;;;27.00;99.90;;;;;;4972730;28;20031;-70
2022/10/15 10:18:39;;;;;;;16.75;2.70;;;26.60;99.90;;;;;;4972304;28;20345;-71
2022/10/15 10:21:36;;;;;;;21.85;2.90;;;26.70;99.90;;;;;;4972355;28;20069;-69
2022/10/15 10:24:19;;;;;;;10.48;2.15;;;26.80;99.90;;;;;;4964587;28;20043;-68
2022/10/15 10:26:47;;;;;;;13.30;2.10;;;27.00;99.90;;;;;;4972167;28;20035;-69
2022/10/15 10:29:21;;;;;;;4.50;1.17;;;27.00;99.90;;;;;;4972239;28;20033;-68
2022/10/15 10:31:50;;;;;;;16.98;2.22;;;26.90;99.90;;;;;;4972754;28;20073;-69
2022/10/15 10:34:28;;;;;;;9.73;2.17;;;27.20;99.90;;;;;;4954414;28;20026;-70
2022/10/15 10:36:55;;;;;;;11.63;2.20;;;27.40;99.90;;;;;;4970880;28;20058;-69
2022/10/15 10:39:33;;;;;;;11.38;2.05;;;27.80;99.90;;;;;;4971871;28;20038;-68
2022/10/15 10:42:22;;;;;;;8.68;1.90;;;28.20;99.90;;;;;;4973052;28;20025;-71
2022/10/15 10:44:48;;;;;;;9.90;2.05;;;28.40;99.90;;;;;;4955537;28;20435;-71
2022/10/15 10:47:17;;;;;;;5.30;1.58;;;28.50;99.90;;;;;;4955227;28;20081;-69
2022/10/15 10:49:46;;;;;;;3.97;1.48;;;28.60;99.90;;;;;;4972402;28;20035;-70
2022/10/15 10:52:33;;;;;;;6.35;1.73;;;28.90;99.90;;;;;;4972626;28;20066;-68
2022/10/15 10:55:06;;;;;;;6.85;2.08;;;28.90;99.90;;;;;;4972781;28;20045;-67
2022/10/15 10:57:44;;;;;;;6.00;1.58;;;28.80;99.90;;;;;;4972670;28;20050;-69
2022/10/15 11:00:18;;;;;;;7.50;1.58;;;28.70;99.90;;;;;;4967386;28;20030;-69
2022/10/15 11:02:44;;;;;;;7.53;1.48;;;28.30;99.90;;;;;;4952071;29;20137;-69
2022/10/15 11:05:12;;;;;;;5.05;1.40;;;28.10;99.90;;;;;;4951801;29;20105;-70
2022/10/15 11:07:52;;;;;;;5.95;1.55;;;28.00;99.90;;;;;;4952686;29;20437;-69
2022/10/15 11:10:32;;;;;;;5.38;1.95;;;28.00;99.90;;;;;;4953108;29;20074;-68
2022/10/15 11:13:17;;;;;;;8.05;1.90;;;28.20;99.90;;;;;;4951443;29;20071;-68
2022/10/15 11:15:54;;;;;;;6.90;1.50;;;28.50;99.90;;;;;;4952322;29;20031;-69
2022/10/15 11:18:28;;;;;;;11.50;1.95;;;28.50;99.90;;;;;;4933226;29;20520;-70
2022/10/15 11:21:05;;;;;;;7.57;1.50;;;28.50;99.90;;;;;;4936231;29;20027;-70
2022/10/15 11:23:57;;;;;;;6.88;1.42;;;28.20;99.90;;;;;;4953394;29;20027;-70
2022/10/15 11:26:39;;;;;;;5.22;1.33;;;28.30;99.90;;;;;;4953544;29;20497;-70
2022/10/15 11:29:35;;;;;;;7.13;1.70;;;28.30;99.90;;;;;;4952981;29;20053;-70
2022/10/15 11:32:15;;;;;;;6.32;1.40;;;28.40;99.90;;;;;;4952845;29;20023;-70
2022/10/15 11:35:18;;;;;;;5.72;1.50;;;28.40;99.90;;;;;;4953175;29;20035;-70
2022/10/15 11:38:13;;;;;;;5.43;1.95;;;28.40;99.90;;;;;;4953318;29;20412;-68
2022/10/15 11:40:57;;;;;;;4.93;1.20;;;28.60;99.90;;;;;;4953504;29;20058;-69
2022/10/15 11:43:50;;;;;;;5.63;1.63;;;28.50;99.90;;;;;;4953625;29;20020;-69
2022/10/15 11:46:41;;;;;;;9.70;2.25;;;28.50;99.90;;;;;;4938968;29;20046;-69
2022/10/15 11:49:48;;;;;;;6.70;1.58;;;28.80;99.90;;;;;;4956514;29;20039;-69
2022/10/15 11:52:42;;;;;;;4.93;1.30;;;28.80;99.90;;;;;;4925588;29;20049;-70
2022/10/15 11:55:08;;;;;;;7.93;1.85;;;29.00;99.90;;;;;;4955995;29;20437;-69
2022/10/15 11:57:38;;;;;;;7.53;1.63;;;29.20;99.90;;;;;;4956655;29;20046;-69
2022/10/15 12:00:13;;;;;;;6.93;1.90;;;29.10;99.90;;;;;;4956460;29;20090;-69
2022/10/15 12:02:39;;;;;;;5.88;2.03;;;29.20;99.90;;;;;;4956770;29;20121;-68
2022/10/15 12:05:12;;;;;;;7.15;1.92;;;29.10;99.90;;;;;;4939185;29;20510;-69
2022/10/15 12:07:43;;;;;;;5.63;1.63;;;29.20;99.90;;;;;;4956959;29;20023;-68
2022/10/15 12:10:26;;;;;;;7.65;1.90;;;29.00;99.90;;;;;;4956142;29;20114;-68
2022/10/15 12:13:08;;;;;;;7.03;2.88;;;28.80;99.90;;;;;;4956592;29;20451;-69
2022/10/15 12:15:59;;;;;;;6.53;1.92;;;28.50;99.90;;;;;;4956078;29;20034;-68
2022/10/15 12:18:47;;;;;;;6.03;1.70;;;28.00;99.90;;;;;;4956657;29;20058;-67
2022/10/15 12:21:55;;;;;;;5.32;1.77;;;27.60;99.90;;;;;;4956694;29;20023;-68
2022/10/15 12:24:51;;;;;;;6.93;2.00;;;27.20;99.90;;;;;;4948651;29;20098;-65
2022/10/15 12:27:37;;;;;;;8.18;2.40;;;27.00;99.90;;;;;;4956629;29;20063;-68
2022/10/15 12:30:06;;;;;;;4.47;1.90;;;26.80;99.90;;;;;;4963709;28;20181;-67
2022/10/15 12:32:47;;;;;;;6.38;2.10;;;26.50;99.90;;;;;;4943399;29;20044;-68
2022/10/15 12:35:23;;;;;;;5.50;2.00;;;26.40;99.90;;;;;;4956681;29;20024;-69
2022/10/15 12:37:50;;;;;;;3.35;1.30;;;26.20;99.90;;;;;;4956596;29;20035;-68
2022/10/15 12:40:27;;;;;;;4.85;1.50;;;26.20;99.90;;;;;;4939370;29;20015;-68
2022/10/15 12:43:11;;;;;;;4.95;1.65;;;26.00;99.90;;;;;;4956714;29;20027;-70
2022/10/15 12:45:49;;;;;;;4.97;1.50;;;26.10;99.90;;;;;;4956381;29;20126;-68
2022/10/15 12:48:14;;;;;;;6.65;1.40;;;26.10;99.90;;;;;;4956221;29;20020;-68
2022/10/15 12:50:41;;;;;;;16.17;1.45;;;26.10;99.90;;;;;;4956085;29;20058;-68
2022/10/15 12:53:28;;;;;;;4.95;1.20;;;26.00;99.90;;;;;;4955651;29;20051;-68
2022/10/15 12:56:18;;;;;;;5.95;1.23;;;25.70;99.90;;;;;;4955914;28;20049;-69
2022/10/15 12:58:52;;;;;;;4.00;1.20;;;25.90;99.90;;;;;;4956103;29;20038;-69
2022/10/15 13:01:21;;;;;;;5.80;0.95;;;26.20;99.90;;;;;;4956070;29;20460;-68
2022/10/15 13:03:49;;;;;;;6.95;1.60;;;26.70;99.90;;;;;;4956064;29;20035;-69
2022/10/15 13:06:21;;;;;;;5.13;1.50;;;27.10;99.90;;;;;;4955817;29;20078;-67
2022/10/15 13:09:09;;;;;;;3.13;1.15;;;27.30;99.90;;;;;;4955647;29;20058;-69
2022/10/15 13:11:39;;;;;;;2.90;1.27;;;27.20;99.90;;;;;;4938566;29;20036;-68
2022/10/15 13:14:11;;;;;;;6.45;1.20;;;27.20;99.90;;;;;;4938415;29;20031;-69
2022/10/15 13:16:49;;;;;;;4.00;1.15;;;27.40;99.90;;;;;;4956026;29;20027;-69